sensor_id;sensor_type;location;lat;lon;timestamp;P1;durP1;ratioP1;P2;durP2;ratioP2
18338;SDS011;9295;44.484;11.240;2023-04-24T00:00:39;13.53;;;3.90;;
18338;SDS011;9295;44.484;11.240;2023-04-24T00:03:08;6.23;;;3.90;;
18338;SDS011;9295;44.484;11.240;2023-04-24T00:05:37;6.00;;;3.23;;
18338;SDS011;9295;44.484;11.240;2023-04-24T00:08:07;6.03;;;3.63;;
18338;SDS011;9295;44.484;11.240;2023-04-24T00:10:36;8.73;;;2.97;;
18338;SDS011;9295;44.484;11.240;2023-04-24T00:13:06;5.80;;;3.43;;
18338;SDS011;9295;44.484;11.240;2023-04-24T00:15:34;5.50;;;3.17;;
18338;SDS011;9295;44.484;11.240;2023-04-24T00:18:02;10.73;;;3.93;;
18338;SDS011;9295;44.484;11.240;2023-04-24T00:20:31;9.40;;;3.17;;
18338;SDS011;9295;44.484;11.240;2023-04-24T00:22:59;9.00;;;3.17;;
18338;SDS011;9295;44.484;11.240;2023-04-24T00:25:28;5.67;;;3.40;;
18338;SDS011;9295;44.484;11.240;2023-04-24T00:27:56;5.57;;;3.03;;
18338;SDS011;9295;44.484;11.240;2023-04-24T00:30:26;7.10;;;3.97;;
18338;SDS011;9295;44.484;11.240;2023-04-24T00:32:55;9.80;;;3.57;;
18338;SDS011;9295;44.484;11.240;2023-04-24T00:35:23;11.03;;;3.80;;
18338;SDS011;9295;44.484;11.240;2023-04-24T00:37:52;10.17;;;3.60;;
18338;SDS011;9295;44.484;11.240;2023-04-24T00:40:20;4.97;;;3.00;;
18338;SDS011;9295;44.484;11.240;2023-04-24T00:42:48;8.50;;;3.27;;
18338;SDS011;9295;44.484;11.240;2023-04-24T00:45:17;6.10;;;3.40;;
18338;SDS011;9295;44.484;11.240;2023-04-24T00:47:47;5.77;;;3.23;;
18338;SDS011;9295;44.484;11.240;2023-04-24T00:50:16;8.90;;;3.70;;
18338;SDS011;9295;44.484;11.240;2023-04-24T00:52:46;8.63;;;3.77;;
18338;SDS011;9295;44.484;11.240;2023-04-24T00:55:14;9.10;;;3.83;;
18338;SDS011;9295;44.484;11.240;2023-04-24T00:57:43;10.17;;;3.87;;
18338;SDS011;9295;44.484;11.240;2023-04-24T01:00:12;7.77;;;3.17;;
18338;SDS011;9295;44.484;11.240;2023-04-24T01:02:41;8.10;;;2.90;;
18338;SDS011;9295;44.484;11.240;2023-04-24T01:05:13;6.70;;;4.10;;
18338;SDS011;9295;44.484;11.240;2023-04-24T01:07:44;8.07;;;3.37;;
18338;SDS011;9295;44.484;11.240;2023-04-24T01:10:15;6.50;;;3.27;;
18338;SDS011;9295;44.484;11.240;2023-04-24T01:12:46;6.90;;;3.33;;
18338;SDS011;9295;44.484;11.240;2023-04-24T01:15:14;7.80;;;3.30;;
18338;SDS011;9295;44.484;11.240;2023-04-24T01:17:43;5.83;;;3.20;;
18338;SDS011;9295;44.484;11.240;2023-04-24T01:20:14;6.70;;;3.70;;
18338;SDS011;9295;44.484;11.240;2023-04-24T01:22:44;9.63;;;3.40;;
18338;SDS011;9295;44.484;11.240;2023-04-24T01:25:14;5.40;;;3.03;;
18338;SDS011;9295;44.484;11.240;2023-04-24T01:27:42;8.13;;;2.90;;
18338;SDS011;9295;44.484;11.240;2023-04-24T01:30:12;9.00;;;3.67;;
18338;SDS011;9295;44.484;11.240;2023-04-24T01:32:41;8.73;;;3.63;;
18338;SDS011;9295;44.484;11.240;2023-04-24T01:35:21;6.60;;;3.43;;
18338;SDS011;9295;44.484;11.240;2023-04-24T01:37:50;7.13;;;3.47;;
18338;SDS011;9295;44.484;11.240;2023-04-24T01:40:19;8.90;;;3.60;;
18338;SDS011;9295;44.484;11.240;2023-04-24T01:42:47;6.70;;;3.17;;
18338;SDS011;9295;44.484;11.240;2023-04-24T01:45:16;4.60;;;3.10;;
18338;SDS011;9295;44.484;11.240;2023-04-24T01:47:44;5.30;;;3.20;;
18338;SDS011;9295;44.484;11.240;2023-04-24T01:50:13;11.00;;;3.47;;
18338;SDS011;9295;44.484;11.240;2023-04-24T01:52:42;9.47;;;3.77;;
18338;SDS011;9295;44.484;11.240;2023-04-24T01:55:11;9.37;;;3.37;;
18338;SDS011;9295;44.484;11.240;2023-04-24T01:57:40;11.87;;;3.40;;
18338;SDS011;9295;44.484;11.240;2023-04-24T02:00:09;9.83;;;3.00;;
18338;SDS011;9295;44.484;11.240;2023-04-24T02:02:39;9.47;;;3.37;;
18338;SDS011;9295;44.484;11.240;2023-04-24T02:05:11;7.93;;;3.50;;
18338;SDS011;9295;44.484;11.240;2023-04-24T02:07:39;7.20;;;3.40;;
18338;SDS011;9295;44.484;11.240;2023-04-24T02:10:08;5.67;;;3.33;;
18338;SDS011;9295;44.484;11.240;2023-04-24T02:12:42;9.63;;;2.90;;
18338;SDS011;9295;44.484;11.240;2023-04-24T02:15:11;9.67;;;3.57;;
18338;SDS011;9295;44.484;11.240;2023-04-24T02:17:39;9.47;;;3.60;;
18338;SDS011;9295;44.484;11.240;2023-04-24T02:20:08;8.83;;;3.93;;
18338;SDS011;9295;44.484;11.240;2023-04-24T02:22:37;10.73;;;4.90;;
18338;SDS011;9295;44.484;11.240;2023-04-24T02:25:06;12.20;;;4.40;;
18338;SDS011;9295;44.484;11.240;2023-04-24T02:27:35;9.03;;;3.77;;
18338;SDS011;9295;44.484;11.240;2023-04-24T02:30:07;11.23;;;4.10;;
18338;SDS011;9295;44.484;11.240;2023-04-24T02:32:36;5.30;;;3.10;;
18338;SDS011;9295;44.484;11.240;2023-04-24T02:35:05;6.93;;;3.20;;
18338;SDS011;9295;44.484;11.240;2023-04-24T02:37:34;6.00;;;3.47;;
18338;SDS011;9295;44.484;11.240;2023-04-24T02:40:03;11.70;;;5.50;;
18338;SDS011;9295;44.484;11.240;2023-04-24T02:42:33;5.70;;;3.60;;
18338;SDS011;9295;44.484;11.240;2023-04-24T02:45:01;7.77;;;4.17;;
18338;SDS011;9295;44.484;11.240;2023-04-24T02:47:31;8.57;;;3.23;;
18338;SDS011;9295;44.484;11.240;2023-04-24T02:50:00;8.10;;;3.87;;
18338;SDS011;9295;44.484;11.240;2023-04-24T02:52:29;8.00;;;3.33;;
18338;SDS011;9295;44.484;11.240;2023-04-24T02:54:57;10.23;;;3.57;;
18338;SDS011;9295;44.484;11.240;2023-04-24T02:57:26;9.97;;;3.60;;
18338;SDS011;9295;44.484;11.240;2023-04-24T02:59:54;9.30;;;3.80;;
18338;SDS011;9295;44.484;11.240;2023-04-24T03:02:22;9.60;;;3.73;;
18338;SDS011;9295;44.484;11.240;2023-04-24T03:04:52;10.60;;;4.27;;
18338;SDS011;9295;44.484;11.240;2023-04-24T03:07:21;12.10;;;3.67;;
18338;SDS011;9295;44.484;11.240;2023-04-24T03:09:50;8.90;;;3.93;;
18338;SDS011;9295;44.484;11.240;2023-04-24T03:12:18;7.57;;;2.87;;
18338;SDS011;9295;44.484;11.240;2023-04-24T03:14:47;13.70;;;3.57;;
18338;SDS011;9295;44.484;11.240;2023-04-24T03:17:15;9.10;;;3.30;;
18338;SDS011;9295;44.484;11.240;2023-04-24T03:19:43;11.77;;;3.43;;
18338;SDS011;9295;44.484;11.240;2023-04-24T03:22:13;9.70;;;3.50;;
18338;SDS011;9295;44.484;11.240;2023-04-24T03:24:42;9.70;;;3.80;;
18338;SDS011;9295;44.484;11.240;2023-04-24T03:27:14;13.87;;;4.07;;
18338;SDS011;9295;44.484;11.240;2023-04-24T03:30:03;7.20;;;3.60;;
18338;SDS011;9295;44.484;11.240;2023-04-24T03:32:49;11.80;;;3.70;;
18338;SDS011;9295;44.484;11.240;2023-04-24T03:35:23;11.03;;;3.37;;
18338;SDS011;9295;44.484;11.240;2023-04-24T03:37:54;6.97;;;3.70;;
18338;SDS011;9295;44.484;11.240;2023-04-24T03:40:54;7.43;;;3.60;;
18338;SDS011;9295;44.484;11.240;2023-04-24T03:43:43;11.37;;;4.67;;
18338;SDS011;9295;44.484;11.240;2023-04-24T03:46:11;17.63;;;6.20;;
18338;SDS011;9295;44.484;11.240;2023-04-24T03:48:44;8.17;;;6.07;;
18338;SDS011;9295;44.484;11.240;2023-04-24T03:51:15;11.00;;;5.93;;
18338;SDS011;9295;44.484;11.240;2023-04-24T03:53:49;9.00;;;5.30;;
18338;SDS011;9295;44.484;11.240;2023-04-24T03:56:20;8.53;;;5.00;;
18338;SDS011;9295;44.484;11.240;2023-04-24T03:58:48;13.00;;;5.80;;
18338;SDS011;9295;44.484;11.240;2023-04-24T04:01:17;8.27;;;5.53;;
18338;SDS011;9295;44.484;11.240;2023-04-24T04:04:05;12.33;;;6.57;;
18338;SDS011;9295;44.484;11.240;2023-04-24T04:06:36;11.67;;;5.93;;
18338;SDS011;9295;44.484;11.240;2023-04-24T04:09:06;8.83;;;5.40;;
18338;SDS011;9295;44.484;11.240;2023-04-24T04:11:35;9.27;;;6.43;;
18338;SDS011;9295;44.484;11.240;2023-04-24T04:14:04;13.03;;;5.73;;
18338;SDS011;9295;44.484;11.240;2023-04-24T04:16:35;14.23;;;6.70;;
18338;SDS011;9295;44.484;11.240;2023-04-24T04:19:05;12.50;;;5.70;;
18338;SDS011;9295;44.484;11.240;2023-04-24T04:21:34;16.00;;;5.50;;
18338;SDS011;9295;44.484;11.240;2023-04-24T04:24:12;19.77;;;6.47;;
18338;SDS011;9295;44.484;11.240;2023-04-24T04:26:43;10.50;;;5.87;;
18338;SDS011;9295;44.484;11.240;2023-04-24T04:29:22;11.17;;;5.30;;
18338;SDS011;9295;44.484;11.240;2023-04-24T04:31:51;9.77;;;5.80;;
18338;SDS011;9295;44.484;11.240;2023-04-24T04:34:20;15.23;;;6.47;;
18338;SDS011;9295;44.484;11.240;2023-04-24T04:36:49;8.33;;;5.33;;
18338;SDS011;9295;44.484;11.240;2023-04-24T04:39:40;12.13;;;5.43;;
18338;SDS011;9295;44.484;11.240;2023-04-24T04:42:15;12.43;;;5.73;;
18338;SDS011;9295;44.484;11.240;2023-04-24T04:44:45;9.77;;;4.70;;
18338;SDS011;9295;44.484;11.240;2023-04-24T04:47:18;9.40;;;5.03;;
18338;SDS011;9295;44.484;11.240;2023-04-24T04:49:50;8.97;;;5.20;;
18338;SDS011;9295;44.484;11.240;2023-04-24T04:52:22;7.90;;;4.97;;
18338;SDS011;9295;44.484;11.240;2023-04-24T04:55:07;8.80;;;5.17;;
18338;SDS011;9295;44.484;11.240;2023-04-24T04:57:54;11.00;;;5.57;;
18338;SDS011;9295;44.484;11.240;2023-04-24T05:00:24;12.80;;;5.37;;
18338;SDS011;9295;44.484;11.240;2023-04-24T05:02:54;9.50;;;5.10;;
18338;SDS011;9295;44.484;11.240;2023-04-24T05:05:39;8.60;;;4.70;;
18338;SDS011;9295;44.484;11.240;2023-04-24T05:08:11;14.20;;;5.30;;
18338;SDS011;9295;44.484;11.240;2023-04-24T05:10:53;13.67;;;5.50;;
18338;SDS011;9295;44.484;11.240;2023-04-24T05:13:25;12.40;;;4.83;;
18338;SDS011;9295;44.484;11.240;2023-04-24T05:16:10;9.63;;;4.70;;
18338;SDS011;9295;44.484;11.240;2023-04-24T05:18:39;7.47;;;4.80;;
18338;SDS011;9295;44.484;11.240;2023-04-24T05:21:10;10.43;;;5.60;;
18338;SDS011;9295;44.484;11.240;2023-04-24T05:23:41;11.17;;;5.47;;
18338;SDS011;9295;44.484;11.240;2023-04-24T05:26:12;13.60;;;5.57;;
18338;SDS011;9295;44.484;11.240;2023-04-24T05:28:41;15.17;;;6.10;;
18338;SDS011;9295;44.484;11.240;2023-04-24T05:31:11;14.13;;;6.50;;
18338;SDS011;9295;44.484;11.240;2023-04-24T05:33:40;13.60;;;7.20;;
18338;SDS011;9295;44.484;11.240;2023-04-24T05:36:08;10.57;;;6.90;;
18338;SDS011;9295;44.484;11.240;2023-04-24T05:38:37;15.00;;;7.23;;
18338;SDS011;9295;44.484;11.240;2023-04-24T05:41:05;15.17;;;7.00;;
18338;SDS011;9295;44.484;11.240;2023-04-24T05:43:35;18.27;;;7.60;;
18338;SDS011;9295;44.484;11.240;2023-04-24T05:46:04;14.57;;;6.23;;
18338;SDS011;9295;44.484;11.240;2023-04-24T05:48:32;18.90;;;7.37;;
18338;SDS011;9295;44.484;11.240;2023-04-24T05:51:03;14.83;;;8.67;;
18338;SDS011;9295;44.484;11.240;2023-04-24T05:53:31;22.07;;;8.20;;
18338;SDS011;9295;44.484;11.240;2023-04-24T05:55:59;20.13;;;9.40;;
18338;SDS011;9295;44.484;11.240;2023-04-24T05:58:29;17.50;;;11.50;;
18338;SDS011;9295;44.484;11.240;2023-04-24T06:00:59;21.43;;;11.90;;
18338;SDS011;9295;44.484;11.240;2023-04-24T06:03:29;16.10;;;11.70;;
18338;SDS011;9295;44.484;11.240;2023-04-24T06:05:58;16.27;;;11.23;;
18338;SDS011;9295;44.484;11.240;2023-04-24T06:08:26;17.90;;;12.30;;
18338;SDS011;9295;44.484;11.240;2023-04-24T06:10:55;19.77;;;12.80;;
18338;SDS011;9295;44.484;11.240;2023-04-24T06:13:24;21.53;;;13.03;;
18338;SDS011;9295;44.484;11.240;2023-04-24T06:16:12;19.10;;;12.03;;
18338;SDS011;9295;44.484;11.240;2023-04-24T06:18:46;17.00;;;12.27;;
18338;SDS011;9295;44.484;11.240;2023-04-24T06:21:15;17.43;;;12.07;;
18338;SDS011;9295;44.484;11.240;2023-04-24T06:23:44;17.10;;;11.30;;
18338;SDS011;9295;44.484;11.240;2023-04-24T06:26:14;16.73;;;11.07;;
18338;SDS011;9295;44.484;11.240;2023-04-24T06:28:42;17.37;;;10.80;;
18338;SDS011;9295;44.484;11.240;2023-04-24T06:31:12;21.73;;;11.83;;
18338;SDS011;9295;44.484;11.240;2023-04-24T06:33:41;16.97;;;11.37;;
18338;SDS011;9295;44.484;11.240;2023-04-24T06:36:09;17.40;;;11.60;;
18338;SDS011;9295;44.484;11.240;2023-04-24T06:38:55;19.47;;;11.87;;
18338;SDS011;9295;44.484;11.240;2023-04-24T06:41:23;20.23;;;10.77;;
18338;SDS011;9295;44.484;11.240;2023-04-24T06:43:52;17.80;;;10.87;;
18338;SDS011;9295;44.484;11.240;2023-04-24T06:46:22;18.77;;;10.67;;
18338;SDS011;9295;44.484;11.240;2023-04-24T06:48:52;14.23;;;9.00;;
18338;SDS011;9295;44.484;11.240;2023-04-24T06:51:22;16.47;;;9.80;;
18338;SDS011;9295;44.484;11.240;2023-04-24T06:53:51;14.70;;;9.00;;
18338;SDS011;9295;44.484;11.240;2023-04-24T06:56:20;13.73;;;8.27;;
18338;SDS011;9295;44.484;11.240;2023-04-24T06:58:48;13.80;;;7.43;;
18338;SDS011;9295;44.484;11.240;2023-04-24T07:01:17;12.57;;;7.30;;
18338;SDS011;9295;44.484;11.240;2023-04-24T07:03:47;9.53;;;7.30;;
18338;SDS011;9295;44.484;11.240;2023-04-24T07:06:16;13.27;;;7.00;;
18338;SDS011;9295;44.484;11.240;2023-04-24T07:08:45;11.73;;;7.03;;
18338;SDS011;9295;44.484;11.240;2023-04-24T07:11:14;10.27;;;5.80;;
18338;SDS011;9295;44.484;11.240;2023-04-24T07:13:42;9.20;;;6.10;;
18338;SDS011;9295;44.484;11.240;2023-04-24T07:16:10;9.83;;;6.13;;
18338;SDS011;9295;44.484;11.240;2023-04-24T07:18:39;14.70;;;7.20;;
18338;SDS011;9295;44.484;11.240;2023-04-24T07:21:09;12.60;;;7.27;;
18338;SDS011;9295;44.484;11.240;2023-04-24T07:23:37;10.10;;;6.97;;
18338;SDS011;9295;44.484;11.240;2023-04-24T07:26:07;11.87;;;6.53;;
18338;SDS011;9295;44.484;11.240;2023-04-24T07:28:36;10.77;;;6.20;;
18338;SDS011;9295;44.484;11.240;2023-04-24T07:31:04;11.80;;;6.60;;
18338;SDS011;9295;44.484;11.240;2023-04-24T07:33:33;11.37;;;5.47;;
18338;SDS011;9295;44.484;11.240;2023-04-24T07:36:03;12.57;;;5.67;;
18338;SDS011;9295;44.484;11.240;2023-04-24T07:38:33;8.40;;;4.83;;
18338;SDS011;9295;44.484;11.240;2023-04-24T07:41:01;11.13;;;6.23;;
18338;SDS011;9295;44.484;11.240;2023-04-24T07:43:29;10.30;;;6.70;;
18338;SDS011;9295;44.484;11.240;2023-04-24T07:45:57;11.30;;;6.30;;
18338;SDS011;9295;44.484;11.240;2023-04-24T07:48:26;14.97;;;5.80;;
18338;SDS011;9295;44.484;11.240;2023-04-24T07:50:54;13.00;;;6.43;;
18338;SDS011;9295;44.484;11.240;2023-04-24T07:53:23;15.00;;;4.80;;
18338;SDS011;9295;44.484;11.240;2023-04-24T07:55:52;6.30;;;3.30;;
18338;SDS011;9295;44.484;11.240;2023-04-24T07:58:22;6.40;;;3.80;;
18338;SDS011;9295;44.484;11.240;2023-04-24T08:00:50;7.17;;;3.60;;
18338;SDS011;9295;44.484;11.240;2023-04-24T08:03:19;6.50;;;3.90;;
18338;SDS011;9295;44.484;11.240;2023-04-24T08:05:47;7.30;;;3.10;;
18338;SDS011;9295;44.484;11.240;2023-04-24T08:08:17;6.50;;;3.10;;
18338;SDS011;9295;44.484;11.240;2023-04-24T08:10:47;6.80;;;3.17;;
18338;SDS011;9295;44.484;11.240;2023-04-24T08:13:17;9.27;;;4.10;;
18338;SDS011;9295;44.484;11.240;2023-04-24T08:15:45;9.43;;;3.60;;
18338;SDS011;9295;44.484;11.240;2023-04-24T08:18:13;8.13;;;4.07;;
18338;SDS011;9295;44.484;11.240;2023-04-24T08:20:42;5.70;;;3.13;;
18338;SDS011;9295;44.484;11.240;2023-04-24T08:23:14;7.10;;;3.80;;
18338;SDS011;9295;44.484;11.240;2023-04-24T08:25:42;6.63;;;4.00;;
18338;SDS011;9295;44.484;11.240;2023-04-24T08:28:11;7.50;;;3.70;;
18338;SDS011;9295;44.484;11.240;2023-04-24T08:30:43;8.93;;;4.17;;
18338;SDS011;9295;44.484;11.240;2023-04-24T08:33:12;6.93;;;3.70;;
18338;SDS011;9295;44.484;11.240;2023-04-24T08:35:40;7.33;;;4.20;;
18338;SDS011;9295;44.484;11.240;2023-04-24T08:38:08;7.47;;;4.07;;
18338;SDS011;9295;44.484;11.240;2023-04-24T08:40:37;9.80;;;4.23;;
18338;SDS011;9295;44.484;11.240;2023-04-24T08:43:05;6.77;;;3.90;;
18338;SDS011;9295;44.484;11.240;2023-04-24T08:45:34;10.10;;;3.40;;
18338;SDS011;9295;44.484;11.240;2023-04-24T08:48:04;8.37;;;3.70;;
18338;SDS011;9295;44.484;11.240;2023-04-24T08:50:49;10.73;;;4.60;;
18338;SDS011;9295;44.484;11.240;2023-04-24T08:53:18;9.73;;;6.80;;
18338;SDS011;9295;44.484;11.240;2023-04-24T08:55:47;12.67;;;7.00;;
18338;SDS011;9295;44.484;11.240;2023-04-24T08:58:18;16.27;;;7.20;;
18338;SDS011;9295;44.484;11.240;2023-04-24T09:00:46;12.57;;;7.73;;
18338;SDS011;9295;44.484;11.240;2023-04-24T09:03:16;12.93;;;7.40;;
18338;SDS011;9295;44.484;11.240;2023-04-24T09:05:46;11.43;;;8.43;;
18338;SDS011;9295;44.484;11.240;2023-04-24T09:08:17;14.23;;;8.67;;
18338;SDS011;9295;44.484;11.240;2023-04-24T09:10:46;13.30;;;9.00;;
18338;SDS011;9295;44.484;11.240;2023-04-24T09:13:16;13.63;;;7.30;;
18338;SDS011;9295;44.484;11.240;2023-04-24T09:15:46;10.23;;;5.57;;
18338;SDS011;9295;44.484;11.240;2023-04-24T09:18:14;10.53;;;5.70;;
18338;SDS011;9295;44.484;11.240;2023-04-24T09:20:56;6.40;;;4.77;;
18338;SDS011;9295;44.484;11.240;2023-04-24T09:23:27;12.53;;;6.53;;
18338;SDS011;9295;44.484;11.240;2023-04-24T09:25:56;14.67;;;8.47;;
18338;SDS011;9295;44.484;11.240;2023-04-24T09:28:27;13.60;;;7.63;;
18338;SDS011;9295;44.484;11.240;2023-04-24T09:31:01;13.07;;;7.30;;
18338;SDS011;9295;44.484;11.240;2023-04-24T09:33:36;9.50;;;6.40;;
18338;SDS011;9295;44.484;11.240;2023-04-24T09:36:04;16.70;;;5.70;;
18338;SDS011;9295;44.484;11.240;2023-04-24T09:38:33;6.50;;;4.17;;
18338;SDS011;9295;44.484;11.240;2023-04-24T09:41:03;9.70;;;4.40;;
18338;SDS011;9295;44.484;11.240;2023-04-24T09:43:33;7.53;;;4.73;;
18338;SDS011;9295;44.484;11.240;2023-04-24T09:46:04;6.80;;;4.10;;
18338;SDS011;9295;44.484;11.240;2023-04-24T09:48:34;8.47;;;4.90;;
18338;SDS011;9295;44.484;11.240;2023-04-24T09:51:06;5.53;;;3.50;;
18338;SDS011;9295;44.484;11.240;2023-04-24T09:53:37;6.37;;;3.30;;
18338;SDS011;9295;44.484;11.240;2023-04-24T09:56:11;6.00;;;2.47;;
18338;SDS011;9295;44.484;11.240;2023-04-24T09:58:40;5.90;;;2.93;;
18338;SDS011;9295;44.484;11.240;2023-04-24T10:01:08;7.37;;;3.03;;
18338;SDS011;9295;44.484;11.240;2023-04-24T10:03:38;4.53;;;2.87;;
18338;SDS011;9295;44.484;11.240;2023-04-24T10:06:11;5.43;;;3.00;;
18338;SDS011;9295;44.484;11.240;2023-04-24T10:08:40;5.63;;;3.40;;
18338;SDS011;9295;44.484;11.240;2023-04-24T10:11:09;7.10;;;3.20;;
18338;SDS011;9295;44.484;11.240;2023-04-24T10:13:38;6.80;;;3.20;;
18338;SDS011;9295;44.484;11.240;2023-04-24T10:16:07;5.20;;;3.07;;
18338;SDS011;9295;44.484;11.240;2023-04-24T10:18:37;7.33;;;3.70;;
18338;SDS011;9295;44.484;11.240;2023-04-24T10:21:07;5.60;;;3.30;;
18338;SDS011;9295;44.484;11.240;2023-04-24T10:23:35;6.20;;;3.30;;
18338;SDS011;9295;44.484;11.240;2023-04-24T10:26:05;8.27;;;3.60;;
18338;SDS011;9295;44.484;11.240;2023-04-24T10:28:34;6.17;;;3.67;;
18338;SDS011;9295;44.484;11.240;2023-04-24T10:31:04;7.93;;;3.10;;
18338;SDS011;9295;44.484;11.240;2023-04-24T10:33:33;5.87;;;3.40;;
18338;SDS011;9295;44.484;11.240;2023-04-24T10:36:03;6.23;;;3.10;;
18338;SDS011;9295;44.484;11.240;2023-04-24T10:38:32;7.10;;;3.73;;
18338;SDS011;9295;44.484;11.240;2023-04-24T10:41:09;9.03;;;3.07;;
18338;SDS011;9295;44.484;11.240;2023-04-24T10:43:42;5.07;;;3.00;;
18338;SDS011;9295;44.484;11.240;2023-04-24T10:46:16;13.73;;;3.50;;
18338;SDS011;9295;44.484;11.240;2023-04-24T10:48:52;8.60;;;3.30;;
18338;SDS011;9295;44.484;11.240;2023-04-24T10:51:22;6.73;;;3.47;;
18338;SDS011;9295;44.484;11.240;2023-04-24T10:53:52;7.00;;;3.60;;
18338;SDS011;9295;44.484;11.240;2023-04-24T10:56:21;8.50;;;3.60;;
18338;SDS011;9295;44.484;11.240;2023-04-24T10:58:50;11.80;;;4.90;;
18338;SDS011;9295;44.484;11.240;2023-04-24T11:01:23;8.40;;;3.43;;
18338;SDS011;9295;44.484;11.240;2023-04-24T11:03:54;8.23;;;3.40;;
18338;SDS011;9295;44.484;11.240;2023-04-24T11:06:31;7.00;;;3.10;;
18338;SDS011;9295;44.484;11.240;2023-04-24T11:09:02;10.83;;;4.47;;
18338;SDS011;9295;44.484;11.240;2023-04-24T11:11:33;9.00;;;3.50;;
18338;SDS011;9295;44.484;11.240;2023-04-24T11:14:07;6.80;;;2.73;;
18338;SDS011;9295;44.484;11.240;2023-04-24T11:16:38;6.60;;;3.90;;
18338;SDS011;9295;44.484;11.240;2023-04-24T11:19:18;10.07;;;3.83;;
18338;SDS011;9295;44.484;11.240;2023-04-24T11:21:55;7.83;;;3.23;;
18338;SDS011;9295;44.484;11.240;2023-04-24T11:24:28;6.27;;;3.20;;
18338;SDS011;9295;44.484;11.240;2023-04-24T11:26:59;10.10;;;3.50;;
18338;SDS011;9295;44.484;11.240;2023-04-24T11:29:42;8.83;;;3.37;;
18338;SDS011;9295;44.484;11.240;2023-04-24T11:32:16;6.63;;;3.27;;
18338;SDS011;9295;44.484;11.240;2023-04-24T11:34:47;5.20;;;2.87;;
18338;SDS011;9295;44.484;11.240;2023-04-24T11:37:18;5.40;;;2.90;;
18338;SDS011;9295;44.484;11.240;2023-04-24T11:39:46;7.17;;;3.77;;
18338;SDS011;9295;44.484;11.240;2023-04-24T11:42:17;6.77;;;3.30;;
18338;SDS011;9295;44.484;11.240;2023-04-24T11:44:47;15.50;;;4.17;;
18338;SDS011;9295;44.484;11.240;2023-04-24T11:47:16;7.63;;;3.13;;
18338;SDS011;9295;44.484;11.240;2023-04-24T11:49:45;5.93;;;3.23;;
18338;SDS011;9295;44.484;11.240;2023-04-24T11:52:15;5.57;;;3.47;;
18338;SDS011;9295;44.484;11.240;2023-04-24T11:54:49;7.40;;;4.17;;
18338;SDS011;9295;44.484;11.240;2023-04-24T11:57:18;10.90;;;3.50;;
18338;SDS011;9295;44.484;11.240;2023-04-24T11:59:48;6.43;;;3.70;;
18338;SDS011;9295;44.484;11.240;2023-04-24T12:02:20;7.80;;;4.20;;
18338;SDS011;9295;44.484;11.240;2023-04-24T12:04:52;7.60;;;4.03;;
18338;SDS011;9295;44.484;11.240;2023-04-24T12:07:22;7.33;;;3.70;;
18338;SDS011;9295;44.484;11.240;2023-04-24T12:09:56;10.70;;;3.50;;
18338;SDS011;9295;44.484;11.240;2023-04-24T12:12:27;10.10;;;3.73;;
18338;SDS011;9295;44.484;11.240;2023-04-24T12:14:56;6.10;;;3.60;;
18338;SDS011;9295;44.484;11.240;2023-04-24T12:17:27;6.90;;;3.43;;
18338;SDS011;9295;44.484;11.240;2023-04-24T12:19:58;4.23;;;3.00;;
18338;SDS011;9295;44.484;11.240;2023-04-24T12:22:42;5.30;;;2.77;;
18338;SDS011;9295;44.484;11.240;2023-04-24T12:25:14;5.17;;;3.30;;
18338;SDS011;9295;44.484;11.240;2023-04-24T12:27:43;6.40;;;3.40;;
18338;SDS011;9295;44.484;11.240;2023-04-24T12:30:12;6.80;;;3.37;;
18338;SDS011;9295;44.484;11.240;2023-04-24T12:32:42;6.57;;;3.27;;
18338;SDS011;9295;44.484;11.240;2023-04-24T12:35:11;5.40;;;3.23;;
18338;SDS011;9295;44.484;11.240;2023-04-24T12:37:43;7.70;;;3.90;;
18338;SDS011;9295;44.484;11.240;2023-04-24T12:40:14;8.90;;;3.80;;
18338;SDS011;9295;44.484;11.240;2023-04-24T12:42:44;8.03;;;3.30;;
18338;SDS011;9295;44.484;11.240;2023-04-24T12:45:13;12.67;;;4.03;;
18338;SDS011;9295;44.484;11.240;2023-04-24T12:47:43;9.03;;;4.00;;
18338;SDS011;9295;44.484;11.240;2023-04-24T12:50:12;8.30;;;4.83;;
18338;SDS011;9295;44.484;11.240;2023-04-24T12:52:43;7.00;;;3.90;;
18338;SDS011;9295;44.484;11.240;2023-04-24T12:55:11;9.70;;;4.83;;
18338;SDS011;9295;44.484;11.240;2023-04-24T12:57:41;8.17;;;4.90;;
18338;SDS011;9295;44.484;11.240;2023-04-24T13:00:10;9.53;;;3.90;;
18338;SDS011;9295;44.484;11.240;2023-04-24T13:02:39;6.10;;;3.90;;
18338;SDS011;9295;44.484;11.240;2023-04-24T13:05:08;6.40;;;3.70;;
18338;SDS011;9295;44.484;11.240;2023-04-24T13:07:38;6.57;;;4.10;;
18338;SDS011;9295;44.484;11.240;2023-04-24T13:10:07;7.93;;;3.27;;
18338;SDS011;9295;44.484;11.240;2023-04-24T13:12:36;3.93;;;2.73;;
18338;SDS011;9295;44.484;11.240;2023-04-24T13:15:07;5.17;;;3.20;;
18338;SDS011;9295;44.484;11.240;2023-04-24T13:17:36;8.00;;;3.53;;
18338;SDS011;9295;44.484;11.240;2023-04-24T13:20:04;7.53;;;3.87;;
18338;SDS011;9295;44.484;11.240;2023-04-24T13:22:33;5.37;;;3.70;;
18338;SDS011;9295;44.484;11.240;2023-04-24T13:25:02;5.90;;;3.57;;
18338;SDS011;9295;44.484;11.240;2023-04-24T13:27:33;5.30;;;3.63;;
18338;SDS011;9295;44.484;11.240;2023-04-24T13:30:01;10.03;;;3.93;;
18338;SDS011;9295;44.484;11.240;2023-04-24T13:32:33;5.23;;;3.50;;
18338;SDS011;9295;44.484;11.240;2023-04-24T13:35:02;6.33;;;2.70;;
18338;SDS011;9295;44.484;11.240;2023-04-24T13:37:31;7.07;;;2.83;;
18338;SDS011;9295;44.484;11.240;2023-04-24T13:40:00;6.03;;;3.13;;
18338;SDS011;9295;44.484;11.240;2023-04-24T13:42:28;6.17;;;3.30;;
18338;SDS011;9295;44.484;11.240;2023-04-24T13:44:56;4.33;;;3.23;;
18338;SDS011;9295;44.484;11.240;2023-04-24T13:47:26;5.20;;;3.30;;
18338;SDS011;9295;44.484;11.240;2023-04-24T13:49:56;6.83;;;3.37;;
18338;SDS011;9295;44.484;11.240;2023-04-24T13:52:24;5.83;;;3.40;;
18338;SDS011;9295;44.484;11.240;2023-04-24T13:54:53;5.53;;;3.20;;
18338;SDS011;9295;44.484;11.240;2023-04-24T13:57:22;6.60;;;3.30;;
18338;SDS011;9295;44.484;11.240;2023-04-24T13:59:50;4.97;;;2.40;;
18338;SDS011;9295;44.484;11.240;2023-04-24T14:02:19;4.60;;;2.53;;
18338;SDS011;9295;44.484;11.240;2023-04-24T14:04:47;4.90;;;2.10;;
18338;SDS011;9295;44.484;11.240;2023-04-24T14:07:17;6.40;;;2.23;;
18338;SDS011;9295;44.484;11.240;2023-04-24T14:09:46;5.67;;;2.50;;
18338;SDS011;9295;44.484;11.240;2023-04-24T14:12:14;4.17;;;2.07;;
18338;SDS011;9295;44.484;11.240;2023-04-24T14:14:45;4.80;;;2.67;;
18338;SDS011;9295;44.484;11.240;2023-04-24T14:17:14;6.50;;;2.80;;
18338;SDS011;9295;44.484;11.240;2023-04-24T14:19:43;3.60;;;2.37;;
18338;SDS011;9295;44.484;11.240;2023-04-24T14:22:11;3.97;;;2.70;;
18338;SDS011;9295;44.484;11.240;2023-04-24T14:24:41;4.70;;;2.73;;
18338;SDS011;9295;44.484;11.240;2023-04-24T14:27:10;4.90;;;2.97;;
18338;SDS011;9295;44.484;11.240;2023-04-24T14:29:38;3.63;;;2.50;;
18338;SDS011;9295;44.484;11.240;2023-04-24T14:32:07;6.90;;;2.80;;
18338;SDS011;9295;44.484;11.240;2023-04-24T14:34:36;5.10;;;2.90;;
18338;SDS011;9295;44.484;11.240;2023-04-24T14:37:04;7.93;;;3.60;;
18338;SDS011;9295;44.484;11.240;2023-04-24T14:39:32;5.63;;;3.00;;
18338;SDS011;9295;44.484;11.240;2023-04-24T14:42:02;6.30;;;2.93;;
18338;SDS011;9295;44.484;11.240;2023-04-24T14:46:59;3.70;;;2.93;;
18338;SDS011;9295;44.484;11.240;2023-04-24T14:49:28;4.80;;;3.00;;
18338;SDS011;9295;44.484;11.240;2023-04-24T14:51:57;5.00;;;2.70;;
18338;SDS011;9295;44.484;11.240;2023-04-24T14:54:25;8.10;;;3.40;;
18338;SDS011;9295;44.484;11.240;2023-04-24T14:56:54;4.80;;;3.30;;
18338;SDS011;9295;44.484;11.240;2023-04-24T14:59:24;7.30;;;3.50;;
18338;SDS011;9295;44.484;11.240;2023-04-24T15:01:53;7.63;;;3.80;;
18338;SDS011;9295;44.484;11.240;2023-04-24T15:04:41;7.07;;;3.33;;